createdAt,value
2022-12-18T00:01:27.967Z,26.47
2022-12-18T00:03:56.524Z,23.17
2022-12-18T00:06:25.753Z,23.33
2022-12-18T00:08:52.692Z,22.73
2022-12-18T00:11:24.252Z,22.70
2022-12-18T00:13:52.768Z,21.87
2022-12-18T00:16:23.359Z,22.87
2022-12-18T00:18:55.385Z,20.47
2022-12-18T00:21:22.792Z,23.80
2022-12-18T00:23:51.301Z,24.20
2022-12-18T00:26:23.203Z,19.83
2022-12-18T00:28:51.013Z,21.17
2022-12-18T00:31:22.715Z,20.13
2022-12-18T00:33:50.026Z,17.00
2022-12-18T00:36:31.400Z,20.10
2022-12-18T00:39:00.116Z,16.80
2022-12-18T00:41:46.806Z,19.77
2022-12-18T00:44:16.724Z,19.27
2022-12-18T00:46:45.518Z,19.53
2022-12-18T00:49:12.351Z,19.47
2022-12-18T00:51:39.195Z,18.37
2022-12-18T00:54:06.613Z,18.27
2022-12-18T00:56:33.323Z,22.77
2022-12-18T00:59:00.042Z,21.40
2022-12-18T01:01:26.810Z,19.47
2022-12-18T01:03:53.567Z,20.47
2022-12-18T01:06:20.835Z,17.97
2022-12-18T01:08:47.648Z,22.00
2022-12-18T01:11:18.658Z,19.73
2022-12-18T01:13:45.595Z,20.77
2022-12-18T01:16:15.164Z,19.60
2022-12-18T01:18:42.325Z,20.43
2022-12-18T01:21:13.029Z,19.43
2022-12-18T01:23:40.561Z,20.33
2022-12-18T01:26:16.436Z,21.03
2022-12-18T01:28:44.846Z,19.03
2022-12-18T01:31:14.941Z,19.70
2022-12-18T01:33:42.052Z,19.23
2022-12-18T01:36:15.019Z,19.60
2022-12-18T01:38:41.977Z,24.60
2022-12-18T01:41:10.128Z,27.07
2022-12-18T01:43:55.083Z,21.97
2022-12-18T01:46:24.797Z,22.63
2022-12-18T01:48:58.719Z,17.20
2022-12-18T01:51:30.671Z,20.77
2022-12-18T01:53:58.937Z,17.90
2022-12-18T01:56:25.672Z,18.17
2022-12-18T01:59:01.968Z,13.53
2022-12-18T02:01:31.990Z,15.63
2022-12-18T02:04:25.663Z,16.40
2022-12-18T02:07:21.757Z,15.70
2022-12-18T02:09:57.964Z,15.40
2022-12-18T02:12:31.517Z,16.03
2022-12-18T02:15:33.107Z,17.03
2022-12-18T02:18:34.602Z,17.97
2022-12-18T02:22:08.908Z,17.40
2022-12-18T02:24:53.561Z,17.90
2022-12-18T02:27:20.668Z,16.97
2022-12-18T02:29:58.771Z,19.80
2022-12-18T02:32:32.561Z,20.87
2022-12-18T02:35:01.607Z,14.97
2022-12-18T02:37:30.611Z,12.97
2022-12-18T02:40:00.020Z,17.07
2022-12-18T02:42:28.984Z,17.83
2022-12-18T02:44:55.808Z,20.80
2022-12-18T02:47:28.739Z,17.60
2022-12-18T02:50:25.717Z,21.67
2022-12-18T02:53:25.158Z,21.07
2022-12-18T02:56:14.056Z,20.57
2022-12-18T02:59:08.150Z,22.97
2022-12-18T03:01:53.175Z,23.93
2022-12-18T03:04:23.788Z,20.93
2022-12-18T03:06:59.417Z,26.87
2022-12-18T03:09:37.601Z,28.67
2022-12-18T03:12:24.270Z,22.23
2022-12-18T03:15:22.653Z,26.00
2022-12-18T03:18:00.397Z,25.87
2022-12-18T03:20:31.785Z,25.37
2022-12-18T03:23:12.406Z,25.83
2022-12-18T03:25:45.010Z,21.83
2022-12-18T03:28:18.831Z,24.43
2022-12-18T03:30:50.768Z,25.33
2022-12-18T03:33:33.200Z,24.70
2022-12-18T03:35:59.992Z,24.80
2022-12-18T03:38:26.842Z,22.63
2022-12-18T03:41:21.375Z,25.30
2022-12-18T03:44:52.120Z,25.30
2022-12-18T03:47:32.694Z,21.63
2022-12-18T03:50:12.861Z,24.07
2022-12-18T03:52:50.466Z,24.07
2022-12-18T03:55:21.895Z,25.40
2022-12-18T03:57:50.581Z,27.33
2022-12-18T04:00:20.778Z,21.43
2022-12-18T04:02:57.229Z,25.33
2022-12-18T04:05:28.120Z,21.87
2022-12-18T04:07:57.190Z,20.30
2022-12-18T04:10:23.927Z,23.30
2022-12-18T04:12:50.628Z,24.17
2022-12-18T04:15:17.539Z,23.07
2022-12-18T04:17:50.187Z,25.30
2022-12-18T04:20:17.997Z,22.67
2022-12-18T04:22:44.762Z,23.53
2022-12-18T04:25:12.847Z,23.10
2022-12-18T04:27:39.775Z,20.83
2022-12-18T04:30:07.538Z,20.00
2022-12-18T04:32:35.524Z,22.50
2022-12-18T04:35:05.029Z,23.90
2022-12-18T04:37:31.734Z,20.83
2022-12-18T04:39:58.457Z,24.07
2022-12-18T04:42:25.192Z,24.93
2022-12-18T04:44:51.918Z,23.40
2022-12-18T04:47:18.686Z,23.03
2022-12-18T04:49:45.447Z,21.03
2022-12-18T04:52:12.195Z,21.53
2022-12-18T04:54:38.884Z,21.90
2022-12-18T04:57:05.619Z,19.47
2022-12-18T04:59:32.326Z,25.27
2022-12-18T05:01:59.201Z,22.03
2022-12-18T05:04:26.021Z,25.17
2022-12-18T05:06:52.771Z,25.27
2022-12-18T05:09:19.549Z,25.00
2022-12-18T05:11:47.559Z,21.03
2022-12-18T05:14:14.490Z,19.00
2022-12-18T05:16:41.395Z,22.53
2022-12-18T05:19:08.233Z,22.93
2022-12-18T05:21:34.951Z,17.57
2022-12-18T05:24:01.693Z,23.87
2022-12-18T05:26:28.468Z,25.23
2022-12-18T05:28:55.171Z,23.83
2022-12-18T05:31:22.037Z,19.23
2022-12-18T05:33:48.801Z,21.67
2022-12-18T05:36:15.663Z,19.70
2022-12-18T05:38:42.642Z,20.60
2022-12-18T05:41:10.501Z,21.47
2022-12-18T05:43:40.023Z,22.17
2022-12-18T05:46:12.936Z,22.23
2022-12-18T05:48:39.972Z,23.13
2022-12-18T05:51:10.404Z,23.53
2022-12-18T05:53:38.598Z,21.30
2022-12-18T05:56:09.890Z,21.83
2022-12-18T05:58:42.527Z,22.03
2022-12-18T06:01:20.740Z,22.23
2022-12-18T06:03:48.008Z,21.53
2022-12-18T06:06:25.229Z,20.50
2022-12-18T06:08:54.733Z,23.77
2022-12-18T06:11:31.099Z,21.70
2022-12-18T06:13:59.473Z,22.23
2022-12-18T06:16:31.678Z,24.60
2022-12-18T06:19:05.256Z,24.93
2022-12-18T06:21:33.305Z,23.77
2022-12-18T06:24:01.569Z,23.37
2022-12-18T06:26:56.809Z,24.97
2022-12-18T06:29:23.609Z,22.37
2022-12-18T06:31:50.381Z,22.90
2022-12-18T06:34:19.660Z,26.23
2022-12-18T06:36:46.568Z,28.03
2022-12-18T06:39:13.422Z,26.70
2022-12-18T06:41:40.298Z,24.47
2022-12-18T06:44:07.640Z,25.37
2022-12-18T06:46:34.639Z,23.73
2022-12-18T06:49:01.545Z,25.03
2022-12-18T06:51:29.651Z,23.23
2022-12-18T06:53:56.532Z,23.63
2022-12-18T06:56:23.319Z,22.30
2022-12-18T06:58:50.016Z,22.67
2022-12-18T07:01:16.771Z,23.67
2022-12-18T07:03:50.717Z,25.73
2022-12-18T07:06:21.145Z,21.07
2022-12-18T07:08:49.675Z,25.07
2022-12-18T07:11:17.690Z,28.83
2022-12-18T07:13:45.146Z,28.40
2022-12-18T08:26:24.009Z,26.00
2022-12-18T08:28:58.601Z,26.67
2022-12-18T08:31:40.786Z,23.03
2022-12-18T08:34:27.669Z,25.63
2022-12-18T08:37:00.611Z,24.27
2022-12-18T08:39:35.101Z,26.13
2022-12-18T09:20:05.930Z,19.80
2022-12-18T10:02:06.067Z,19.70
2022-12-18T10:08:49.492Z,22.53
2022-12-18T10:20:15.310Z,17.90
2022-12-18T10:23:20.729Z,17.80
2022-12-18T10:26:10.544Z,18.90
2022-12-18T10:28:41.617Z,21.10
2022-12-18T10:31:20.938Z,19.73
2022-12-18T10:33:51.922Z,18.80
2022-12-18T10:36:18.654Z,23.47
2022-12-18T10:38:45.411Z,25.00
2022-12-18T10:41:26.768Z,20.47
2022-12-18T10:44:18.555Z,16.50
2022-12-18T10:46:56.830Z,19.37
2022-12-18T10:49:31.520Z,16.43
2022-12-18T10:52:23.975Z,17.93
2022-12-18T10:54:59.479Z,19.57
2022-12-18T10:57:38.074Z,19.17
2022-12-18T11:00:31.183Z,20.80
2022-12-18T11:02:58.725Z,18.93
2022-12-18T11:05:34.238Z,18.80
2022-12-18T11:08:02.472Z,19.13
2022-12-18T11:10:36.280Z,21.30
2022-12-18T11:13:21.603Z,16.33
2022-12-18T11:15:49.318Z,20.77
2022-12-18T11:18:25.035Z,20.07
2022-12-18T11:21:08.863Z,20.03
2022-12-18T11:23:38.262Z,20.17
2022-12-18T11:26:06.983Z,19.90
2022-12-18T11:28:43.275Z,20.00
2022-12-18T11:31:29.351Z,19.53
2022-12-18T11:36:50.649Z,23.13
2022-12-18T11:39:43.581Z,21.90
2022-12-18T11:42:25.110Z,20.33
2022-12-18T11:44:59.751Z,24.23
2022-12-18T11:48:07.881Z,19.40
2022-12-18T11:50:52.069Z,24.33
2022-12-18T11:53:19.516Z,22.40
2022-12-18T11:56:00.929Z,22.43
2022-12-18T11:58:58.563Z,27.47
2022-12-18T12:02:12.393Z,21.33
2022-12-18T12:05:27.256Z,18.97
2022-12-18T12:08:25.565Z,23.53
2022-12-18T12:11:21.163Z,22.73
2022-12-18T12:14:09.279Z,21.73
2022-12-18T12:16:50.127Z,19.57
2022-12-18T12:19:40.140Z,23.50
2022-12-18T12:22:31.986Z,20.87
2022-12-18T12:25:53.207Z,24.07
2022-12-18T12:29:21.125Z,23.33
2022-12-18T12:32:14.060Z,21.17
2022-12-18T12:35:26.337Z,21.53
2022-12-18T12:38:13.673Z,22.00
2022-12-18T12:40:56.968Z,22.80
2022-12-18T12:43:50.489Z,21.57
2022-12-18T12:46:22.744Z,24.17
2022-12-18T12:48:59.277Z,22.77
2022-12-18T12:51:35.661Z,23.73
2022-12-18T12:54:07.445Z,22.60
2022-12-18T12:56:51.313Z,21.47
2022-12-18T12:59:58.963Z,22.07
2022-12-18T13:02:59.392Z,24.03
2022-12-18T13:05:55.971Z,22.80
2022-12-18T13:08:34.219Z,21.27
2022-12-18T13:11:22.189Z,22.93
2022-12-18T13:13:55.993Z,23.17
2022-12-18T13:16:28.458Z,22.57
2022-12-18T13:18:59.741Z,27.03
2022-12-18T13:21:31.896Z,23.27
2022-12-18T13:24:31.653Z,23.60
2022-12-18T13:26:58.546Z,25.30
2022-12-18T13:29:45.726Z,23.43
2022-12-18T13:32:27.595Z,23.47
2022-12-18T13:35:19.236Z,24.20
2022-12-18T13:37:55.970Z,20.83
2022-12-18T13:40:41.297Z,20.87
2022-12-18T13:43:37.851Z,26.97
2022-12-18T13:46:29.138Z,25.43
2022-12-18T13:49:06.605Z,22.67
2022-12-18T13:51:36.323Z,23.43
2022-12-18T13:54:33.912Z,22.23
2022-12-18T13:57:01.115Z,23.73
2022-12-18T13:59:40.892Z,27.13
2022-12-18T14:02:22.956Z,25.40
2022-12-18T14:04:51.671Z,22.80
2022-12-18T14:07:30.819Z,31.17
2022-12-18T14:10:18.752Z,23.17
2022-12-18T14:12:57.914Z,20.87
2022-12-18T14:15:27.921Z,23.67
2022-12-18T14:18:00.150Z,23.50
2022-12-18T14:20:33.462Z,23.50
2022-12-18T14:23:01.761Z,22.67
2022-12-18T14:25:31.238Z,25.17
2022-12-18T14:28:16.307Z,26.23
2022-12-18T14:30:46.047Z,21.70
2022-12-18T14:33:23.457Z,23.80
2022-12-18T14:36:04.560Z,24.03
2022-12-18T14:38:36.365Z,25.10
2022-12-18T14:41:14.926Z,25.20
2022-12-18T14:43:45.099Z,28.90
2022-12-18T14:46:47.132Z,26.27
2022-12-18T14:49:26.035Z,24.23
2022-12-18T14:51:57.529Z,24.53
2022-12-18T14:54:26.994Z,27.93
2022-12-18T14:57:19.627Z,23.40
2022-12-18T14:59:46.419Z,24.40
2022-12-18T15:02:29.535Z,28.83
2022-12-18T15:05:30.772Z,24.00
2022-12-18T15:08:01.336Z,23.17
2022-12-18T15:10:31.892Z,23.07
2022-12-18T15:13:01.461Z,26.50
2022-12-18T15:15:34.717Z,24.77
2022-12-18T15:18:32.981Z,24.40
2022-12-18T15:21:09.650Z,28.60
2022-12-18T15:23:50.313Z,26.73
2022-12-18T15:26:21.694Z,23.60
2022-12-18T15:28:59.372Z,22.43
2022-12-18T15:31:36.478Z,25.33
2022-12-18T15:34:08.935Z,24.77
2022-12-18T15:36:38.961Z,27.80
2022-12-18T15:39:06.852Z,26.57
2022-12-18T15:41:36.895Z,23.27
2022-12-18T15:44:22.198Z,24.70
2022-12-18T15:46:49.057Z,27.47
2022-12-18T15:49:15.757Z,25.40
2022-12-18T15:51:42.920Z,23.50
2022-12-18T15:54:17.025Z,26.40
2022-12-18T15:57:02.678Z,21.70
2022-12-18T15:59:29.490Z,26.03
2022-12-18T16:01:57.633Z,22.60
2022-12-18T16:04:25.680Z,27.50
2022-12-18T16:07:14.691Z,22.90
2022-12-18T16:09:39.679Z,27.63
2022-12-18T16:12:15.138Z,25.30
2022-12-18T16:14:42.027Z,28.13
2022-12-18T16:17:13.332Z,27.87
2022-12-18T16:19:40.347Z,26.17
2022-12-18T16:22:13.555Z,26.47
2022-12-18T16:24:40.414Z,24.07
2022-12-18T16:27:07.170Z,27.07
2022-12-18T16:29:33.936Z,24.67
2022-12-18T16:32:01.853Z,27.50
2022-12-18T16:34:36.114Z,26.53
2022-12-18T16:37:06.784Z,26.83
2022-12-18T16:39:35.454Z,28.63
2022-12-18T16:42:20.010Z,29.17
2022-12-18T16:44:49.407Z,25.37
2022-12-18T16:47:17.683Z,28.17
2022-12-18T16:49:45.828Z,28.43
2022-12-18T16:52:13.711Z,28.73
2022-12-18T16:54:40.583Z,29.73
2022-12-18T16:57:07.313Z,26.23
2022-12-18T16:59:34.171Z,29.73
2022-12-18T17:02:01.898Z,33.17
2022-12-18T17:04:28.826Z,25.03
2022-12-18T17:06:55.563Z,29.67
2022-12-18T17:09:25.743Z,27.77
2022-12-18T17:11:54.004Z,32.00
2022-12-18T17:14:24.900Z,33.57
2022-12-18T17:17:19.280Z,28.30
2022-12-18T17:19:40.382Z,26.33
2022-12-18T17:22:08.209Z,31.73
2022-12-18T17:24:35.751Z,29.70
2022-12-18T17:27:04.128Z,28.23
2022-12-18T17:29:30.994Z,29.93
2022-12-18T17:32:00.179Z,26.53
2022-12-18T17:34:27.922Z,31.23
2022-12-18T17:36:55.119Z,31.60
2022-12-18T17:39:22.428Z,28.33
2022-12-18T17:41:49.777Z,28.27
2022-12-18T17:44:17.803Z,29.73
2022-12-18T17:46:45.973Z,31.27
2022-12-18T17:49:13.892Z,34.13
2022-12-18T17:51:42.734Z,31.63
2022-12-18T17:54:10.522Z,33.43
2022-12-18T17:56:39.500Z,27.63
2022-12-18T17:59:06.992Z,31.90
2022-12-18T18:01:36.375Z,32.37
2022-12-18T18:04:07.140Z,29.17
2022-12-18T18:06:34.473Z,32.57
2022-12-18T18:09:15.992Z,30.33
2022-12-18T18:12:05.645Z,30.50
2022-12-18T18:14:32.987Z,29.07
2022-12-18T18:17:04.195Z,29.23
2022-12-18T18:19:32.853Z,27.50
2022-12-18T18:21:59.746Z,33.63
2022-12-18T18:24:27.082Z,29.93
2022-12-18T18:26:59.356Z,26.77
2022-12-18T18:29:27.850Z,28.33
2022-12-18T18:31:56.495Z,26.67
2022-12-18T18:34:27.451Z,28.97
2022-12-18T18:36:54.348Z,23.40
2022-12-18T18:39:21.254Z,28.30
2022-12-18T18:41:48.874Z,23.00
2022-12-18T18:44:18.103Z,23.70
2022-12-18T18:46:45.395Z,27.77
2022-12-18T18:49:13.705Z,27.23
2022-12-18T18:51:41.805Z,27.90
2022-12-18T18:54:09.517Z,25.43
2022-12-18T18:59:31.783Z,24.23
2022-12-18T19:02:00.237Z,23.17
2022-12-18T19:04:31.191Z,27.60
2022-12-18T19:06:57.936Z,24.70
2022-12-18T19:09:24.949Z,22.60
2022-12-18T19:12:10.841Z,24.27
2022-12-18T19:14:37.564Z,29.53
2022-12-18T19:17:04.402Z,25.30
2022-12-18T19:19:31.232Z,25.20
2022-12-18T19:21:58.048Z,25.90
2022-12-18T19:24:24.778Z,25.30
2022-12-18T19:26:52.140Z,25.90
2022-12-18T19:29:21.615Z,26.53
2022-12-18T19:31:48.391Z,24.80
2022-12-18T19:34:15.241Z,26.73
2022-12-18T19:36:42.187Z,25.30
2022-12-18T19:39:17.491Z,26.60
2022-12-18T19:41:44.989Z,30.37
2022-12-18T19:44:14.750Z,31.43
2022-12-18T19:46:42.966Z,27.37
2022-12-18T19:49:17.634Z,31.47
2022-12-18T19:51:45.844Z,31.10
2022-12-18T19:54:17.234Z,33.13
2022-12-18T19:56:45.024Z,28.90
2022-12-18T19:59:12.470Z,27.60
2022-12-18T20:01:39.385Z,31.23
2022-12-18T20:04:06.456Z,28.53
2022-12-18T20:06:49.778Z,28.67
2022-12-18T20:09:17.893Z,29.33
2022-12-18T20:11:46.336Z,27.90
2022-12-18T20:14:18.844Z,30.17
2022-12-18T20:16:52.200Z,35.47
2022-12-18T20:19:19.795Z,31.03
2022-12-18T20:21:47.429Z,26.27
2022-12-18T20:24:14.300Z,36.37
2022-12-18T20:26:41.179Z,31.50
2022-12-18T20:29:08.042Z,33.03
2022-12-18T20:31:34.890Z,28.30
2022-12-18T20:34:03.645Z,31.90
2022-12-18T20:36:34.238Z,31.43
2022-12-18T20:39:05.237Z,35.00
2022-12-18T20:41:37.852Z,31.63
2022-12-18T20:44:10.995Z,30.70
2022-12-18T20:46:50.663Z,33.33
2022-12-18T20:49:17.369Z,29.30
2022-12-18T20:51:44.080Z,35.17
2022-12-18T20:54:12.000Z,26.23
2022-12-18T20:56:38.949Z,33.67
2022-12-18T20:59:05.703Z,31.77
2022-12-18T21:01:32.595Z,34.43
2022-12-18T21:04:00.640Z,41.80
2022-12-18T21:06:27.575Z,34.60
2022-12-18T21:08:54.373Z,34.17
2022-12-18T21:11:39.463Z,32.33
2022-12-18T21:14:16.877Z,28.77
2022-12-18T21:16:44.560Z,38.43
2022-12-18T21:19:18.635Z,32.50
2022-12-18T21:21:45.994Z,34.93
2022-12-18T21:24:13.112Z,33.70
2022-12-18T21:26:46.161Z,35.70
2022-12-18T21:29:24.335Z,33.40
2022-12-18T21:31:54.687Z,39.77
2022-12-18T21:34:27.203Z,39.83
2022-12-18T21:36:56.356Z,33.17
2022-12-18T21:39:24.731Z,38.40
2022-12-18T21:42:10.684Z,30.80
2022-12-18T21:44:42.030Z,34.63
2022-12-18T21:47:21.370Z,38.03
2022-12-18T21:49:51.917Z,36.30
2022-12-18T21:52:20.265Z,32.57
2022-12-18T21:54:50.739Z,38.07
2022-12-18T21:57:18.601Z,39.63
2022-12-18T21:59:45.441Z,38.47
2022-12-18T22:02:18.198Z,38.43
2022-12-18T22:04:46.900Z,35.90
2022-12-18T22:07:16.117Z,36.40
2022-12-18T22:09:43.140Z,34.93
2022-12-18T22:12:13.282Z,36.83
2022-12-18T22:14:40.036Z,32.97
2022-12-18T22:17:06.891Z,40.20
2022-12-18T22:19:38.147Z,34.77
2022-12-18T22:22:09.582Z,36.00
2022-12-18T22:24:36.307Z,31.17
2022-12-18T22:27:03.090Z,37.07
2022-12-18T22:29:48.733Z,32.33
2022-12-18T22:32:17.026Z,29.40
2022-12-18T22:34:47.107Z,34.17
2022-12-18T22:37:14.203Z,33.63
2022-12-18T22:39:40.993Z,38.43
2022-12-18T22:42:07.940Z,41.87
2022-12-18T22:44:34.711Z,36.03
2022-12-18T22:47:06.218Z,33.83
2022-12-18T22:49:34.901Z,30.33
2022-12-18T22:52:09.225Z,34.47
2022-12-18T22:54:36.500Z,33.10
2022-12-18T22:57:03.431Z,34.40
2022-12-18T22:59:30.213Z,30.63
2022-12-18T23:01:58.680Z,25.23
2022-12-18T23:04:36.165Z,29.30
2022-12-18T23:07:05.374Z,33.50
2022-12-18T23:09:32.952Z,27.33
2022-12-18T23:12:00.258Z,26.60
2022-12-18T23:14:28.402Z,31.90
2022-12-18T23:16:55.577Z,26.63
2022-12-18T23:19:23.931Z,29.20
2022-12-18T23:21:51.709Z,27.27
2022-12-18T23:24:19.605Z,26.87
2022-12-18T23:26:46.349Z,23.43
2022-12-18T23:29:13.099Z,27.00
2022-12-18T23:31:40.236Z,30.13
2022-12-18T23:34:08.074Z,24.33
2022-12-18T23:36:46.068Z,21.80
2022-12-18T23:39:17.445Z,21.93
2022-12-18T23:41:57.252Z,22.67
2022-12-18T23:44:23.977Z,20.50
2022-12-18T23:46:50.724Z,19.50
2022-12-18T23:49:17.527Z,24.80
2022-12-18T23:51:44.233Z,22.07
2022-12-18T23:54:11.024Z,19.50
2022-12-18T23:56:37.820Z,18.50
2022-12-18T23:59:04.989Z,23.50
